Time;durP1;ratioP1;P1;durP2;ratioP2;P2;SDS_P1;SDS_P2;PMS_P1;PMS_P2;Temp;Humidity;BMP_temperature;BMP_pressure;BME280_temperature;BME280_humidity;BME280_pressure;Samples;Min_cycle;Max_cycle;Signal;HPM_P1;HPM_P2
2022/09/06 00:00:13;;;;;;;3.15;2.92;;;18.60;99.90;;;;;;5062911;28;20035;-70
2022/09/06 00:02:40;;;;;;;3.95;3.10;;;18.60;99.90;;;;;;5080017;28;20052;-70
2022/09/06 00:05:07;;;;;;;3.72;3.08;;;18.60;99.90;;;;;;5079826;28;20296;-70
2022/09/06 00:07:33;;;;;;;4.40;3.40;;;18.60;99.90;;;;;;5079805;28;20079;-70
2022/09/06 00:09:59;;;;;;;4.78;3.50;;;18.60;99.90;;;;;;5062455;28;20040;-71
2022/09/06 00:12:25;;;;;;;5.32;3.78;;;18.70;99.90;;;;;;5062969;28;20112;-70
2022/09/06 00:14:51;;;;;;;3.67;3.33;;;18.70;99.90;;;;;;5062455;28;20075;-70
2022/09/06 00:17:17;;;;;;;4.95;3.47;;;18.70;99.90;;;;;;5045733;28;20046;-71
2022/09/06 00:19:43;;;;;;;4.88;3.55;;;18.70;99.90;;;;;;5058638;28;20053;-71
2022/09/06 00:22:09;;;;;;;5.13;3.47;;;18.80;99.90;;;;;;5058904;28;20045;-70
2022/09/06 00:24:36;;;;;;;3.50;3.20;;;18.80;99.90;;;;;;5059390;28;20079;-70
2022/09/06 00:27:03;;;;;;;5.30;3.78;;;18.90;99.90;;;;;;5058739;28;20028;-69
2022/09/06 00:29:28;;;;;;;4.30;3.50;;;19.00;99.90;;;;;;5058646;28;20043;-70
2022/09/06 00:31:54;;;;;;;5.25;3.58;;;18.90;99.90;;;;;;5059778;28;20029;-70
2022/09/06 00:34:20;;;;;;;3.45;3.10;;;19.00;99.90;;;;;;5058752;28;20041;-70
2022/09/06 00:36:46;;;;;;;3.42;3.13;;;19.00;99.90;;;;;;5041962;28;20460;-70
2022/09/06 00:39:12;;;;;;;3.90;3.20;;;19.10;99.90;;;;;;5058505;28;20052;-70
2022/09/06 00:41:37;;;;;;;4.15;3.05;;;19.00;99.90;;;;;;5058641;28;20055;-70
2022/09/06 00:44:03;;;;;;;4.30;3.17;;;19.10;99.90;;;;;;5057985;28;20028;-70
2022/09/06 00:46:30;;;;;;;4.15;3.00;;;19.10;99.90;;;;;;5058277;28;20064;-70
2022/09/06 00:49:03;;;;;;;4.43;3.03;;;19.10;99.90;;;;;;5059234;28;20435;-71
2022/09/06 00:51:30;;;;;;;4.13;3.10;;;19.20;99.90;;;;;;5058273;28;20036;-71
2022/09/06 00:53:57;;;;;;;3.65;3.17;;;19.20;99.90;;;;;;5058293;28;20112;-71
2022/09/06 00:56:25;;;;;;;3.85;3.42;;;19.10;99.90;;;;;;5058178;28;20033;-71
2022/09/06 00:58:50;;;;;;;3.53;3.20;;;19.10;99.90;;;;;;5058896;28;20021;-70
2022/09/06 01:01:16;;;;;;;4.15;3.13;;;19.10;99.90;;;;;;5081498;22;20076;-70
2022/09/06 01:03:42;;;;;;;4.07;3.60;;;19.00;99.90;;;;;;5095156;28;20034;-71
2022/09/06 01:06:47;;;;;;;3.70;2.90;;;18.90;99.90;;;;;;5078702;28;20381;-70
2022/09/06 01:09:38;;;;;;;4.00;3.60;;;18.80;99.90;;;;;;5078839;28;20036;-71
2022/09/06 01:12:26;;;;;;;4.45;4.05;;;18.80;99.90;;;;;;5078501;28;20039;-71
2022/09/06 01:15:07;;;;;;;5.63;4.05;;;18.60;99.90;;;;;;5094756;28;20079;-70
2022/09/06 01:18:04;;;;;;;5.43;4.22;;;18.70;99.90;;;;;;5078481;28;20078;-70
2022/09/06 01:20:56;;;;;;;6.75;4.55;;;18.70;99.90;;;;;;5077739;28;20404;-71
2022/09/06 01:23:40;;;;;;;5.35;4.07;;;18.70;99.90;;;;;;5077541;28;20028;-71
2022/09/06 01:26:32;;;;;;;6.13;5.00;;;18.50;99.90;;;;;;5078395;28;20017;-70
2022/09/06 01:28:57;;;;;;;4.65;4.25;;;18.50;99.90;;;;;;5078512;28;20024;-70
2022/09/06 01:31:23;;;;;;;4.78;4.30;;;18.40;99.90;;;;;;5094906;28;20024;-69
2022/09/06 01:34:04;;;;;;;6.28;4.72;;;18.40;99.90;;;;;;5078253;28;20035;-69
2022/09/06 01:36:55;;;;;;;5.10;4.65;;;18.30;99.90;;;;;;5078262;28;20032;-69
2022/09/06 01:39:29;;;;;;;4.65;4.25;;;18.30;99.90;;;;;;5094209;28;20036;-70
2022/09/06 01:41:59;;;;;;;5.43;4.85;;;18.30;99.90;;;;;;5094371;28;20292;-70
2022/09/06 01:44:29;;;;;;;5.28;4.88;;;18.30;99.90;;;;;;5078061;28;20384;-70
2022/09/06 01:47:07;;;;;;;5.55;5.00;;;18.30;99.90;;;;;;5077182;28;20040;-70
2022/09/06 01:49:56;;;;;;;5.60;5.10;;;18.30;99.90;;;;;;5077911;28;20024;-70
2022/09/06 01:52:30;;;;;;;8.18;5.65;;;18.30;99.90;;;;;;5094131;28;20032;-70
2022/09/06 01:55:07;;;;;;;5.60;5.00;;;18.40;99.90;;;;;;5093159;28;20357;-70
2022/09/06 01:57:39;;;;;;;5.18;4.60;;;18.20;99.90;;;;;;5077889;28;20036;-70
2022/09/06 02:00:15;;;;;;;6.15;4.53;;;18.10;99.90;;;;;;5093892;28;20055;-70
2022/09/06 02:02:41;;;;;;;5.18;4.60;;;18.00;99.90;;;;;;5077871;28;20052;-70
2022/09/06 02:05:35;;;;;;;5.05;4.65;;;18.00;99.90;;;;;;5076923;28;20039;-70
2022/09/06 02:08:28;;;;;;;4.50;4.10;;;17.90;99.90;;;;;;5093979;28;20465;-70
2022/09/06 02:11:00;;;;;;;4.97;4.60;;;17.90;99.90;;;;;;5077538;28;20052;-71
2022/09/06 02:13:34;;;;;;;5.13;4.63;;;18.00;99.90;;;;;;5093610;28;20033;-71
2022/09/06 02:16:03;;;;;;;5.25;4.75;;;18.00;99.90;;;;;;5076821;28;20029;-72
2022/09/06 02:18:43;;;;;;;5.28;4.88;;;18.10;99.90;;;;;;5076580;28;20033;-71
2022/09/06 02:21:14;;;;;;;7.07;5.05;;;18.20;99.90;;;;;;5093626;28;20028;-71
2022/09/06 02:23:43;;;;;;;6.72;5.35;;;18.20;99.90;;;;;;5077283;28;20342;-71
2022/09/06 02:26:31;;;;;;;9.10;5.13;;;18.30;99.90;;;;;;5093508;28;20089;-71
2022/09/06 02:28:57;;;;;;;6.22;5.30;;;18.20;99.90;;;;;;5093485;28;20037;-71
2022/09/06 02:31:28;;;;;;;6.82;5.28;;;18.20;99.90;;;;;;5077315;28;20031;-70
2022/09/06 02:33:55;;;;;;;5.88;5.13;;;18.00;99.90;;;;;;5093257;28;20040;-71
2022/09/06 02:36:21;;;;;;;5.72;4.93;;;17.90;99.90;;;;;;5077342;28;20178;-71
2022/09/06 02:38:47;;;;;;;5.90;5.40;;;17.90;99.90;;;;;;5077131;28;20040;-71
2022/09/06 02:41:17;;;;;;;6.70;5.80;;;18.00;99.90;;;;;;5076412;28;20025;-71
2022/09/06 02:43:43;;;;;;;5.28;4.78;;;17.90;99.90;;;;;;5077068;28;20086;-71
2022/09/06 02:46:09;;;;;;;7.68;5.35;;;17.90;99.90;;;;;;5077667;28;20052;-71
2022/09/06 02:48:35;;;;;;;5.68;5.07;;;18.00;99.90;;;;;;5076313;28;20033;-71
2022/09/06 02:51:06;;;;;;;6.00;5.22;;;18.00;99.90;;;;;;5076520;28;20404;-71
2022/09/06 02:53:32;;;;;;;5.18;4.72;;;18.00;99.90;;;;;;5077070;28;20028;-71
2022/09/06 02:55:58;;;;;;;5.97;4.80;;;18.00;99.90;;;;;;5077135;28;20041;-72
2022/09/06 02:58:24;;;;;;;8.60;5.35;;;18.00;99.90;;;;;;5093646;28;20044;-71
2022/09/06 03:00:51;;;;;;;6.18;5.32;;;18.00;99.90;;;;;;5076886;28;20080;-71
2022/09/06 03:03:18;;;;;;;5.85;5.22;;;18.00;99.90;;;;;;5093013;28;20384;-71
2022/09/06 03:05:51;;;;;;;5.50;4.90;;;18.00;99.90;;;;;;5078918;28;20032;-71
2022/09/06 03:08:18;;;;;;;6.07;5.47;;;18.00;99.90;;;;;;5083694;28;20063;-71
2022/09/06 03:10:52;;;;;;;5.47;4.97;;;18.00;99.90;;;;;;5082913;28;20024;-72
2022/09/06 03:13:19;;;;;;;5.45;4.95;;;17.90;99.90;;;;;;5083801;28;20024;-71
2022/09/06 03:15:50;;;;;;;8.07;5.70;;;17.90;99.90;;;;;;5082845;28;20399;-71
2022/09/06 03:18:16;;;;;;;6.93;5.45;;;17.90;99.90;;;;;;5083777;28;20028;-71
2022/09/06 03:20:41;;;;;;;6.32;5.68;;;17.90;99.90;;;;;;5082704;28;20040;-71
2022/09/06 03:23:08;;;;;;;5.95;5.45;;;17.90;99.90;;;;;;5065745;28;20301;-71
2022/09/06 03:25:34;;;;;;;6.47;5.88;;;18.00;99.90;;;;;;5082839;28;20039;-71
2022/09/06 03:28:00;;;;;;;5.72;5.22;;;17.90;99.90;;;;;;5083118;28;20033;-71
2022/09/06 03:30:26;;;;;;;6.72;6.03;;;17.80;99.90;;;;;;5082867;28;20028;-71
2022/09/06 03:32:51;;;;;;;6.75;6.10;;;17.90;99.90;;;;;;5083467;28;20412;-72
2022/09/06 03:35:17;;;;;;;6.25;5.70;;;17.80;99.90;;;;;;5083385;28;20074;-71
2022/09/06 03:37:43;;;;;;;7.88;6.10;;;17.80;99.90;;;;;;5084077;28;20063;-71
2022/09/06 03:40:09;;;;;;;6.90;6.30;;;17.80;99.90;;;;;;5083394;28;20033;-71
2022/09/06 03:42:35;;;;;;;7.32;6.68;;;17.90;99.90;;;;;;5099457;28;20028;-71
2022/09/06 03:45:01;;;;;;;7.60;6.63;;;17.90;99.90;;;;;;5082306;28;20138;-71
2022/09/06 03:47:27;;;;;;;6.68;5.93;;;17.80;99.90;;;;;;5082616;28;20040;-71
2022/09/06 03:49:53;;;;;;;6.65;5.95;;;17.80;99.90;;;;;;5083175;28;20403;-71
2022/09/06 03:52:18;;;;;;;6.38;5.70;;;17.70;99.90;;;;;;5066686;22;20084;-71
2022/09/06 03:54:44;;;;;;;6.43;5.90;;;17.60;99.90;;;;;;5009772;28;20041;-71
2022/09/06 03:57:10;;;;;;;6.32;5.72;;;17.60;99.90;;;;;;5026398;28;20071;-71
2022/09/06 03:59:36;;;;;;;6.22;5.63;;;17.60;99.90;;;;;;5043069;28;20036;-71
2022/09/06 04:02:02;;;;;;;7.43;6.05;;;17.60;99.90;;;;;;5010144;28;20045;-71
2022/09/06 04:04:28;;;;;;;8.52;6.47;;;17.60;99.90;;;;;;5025798;28;20401;-72
2022/09/06 04:06:54;;;;;;;7.00;6.40;;;17.70;99.90;;;;;;5009660;28;20114;-72
2022/09/06 04:09:20;;;;;;;8.82;6.15;;;17.60;99.90;;;;;;5025775;28;20025;-72
2022/09/06 04:11:46;;;;;;;9.07;6.65;;;17.50;99.90;;;;;;5043038;28;20026;-72
2022/09/06 04:14:12;;;;;;;6.82;6.22;;;17.50;99.90;;;;;;5025678;28;20037;-71
2022/09/06 04:16:37;;;;;;;7.07;6.40;;;17.40;99.90;;;;;;5026377;28;20037;-71
2022/09/06 04:19:03;;;;;;;7.85;6.60;;;17.40;99.90;;;;;;5021837;28;20037;-71
2022/09/06 04:21:30;;;;;;;9.98;8.05;;;17.50;99.90;;;;;;5006529;28;20049;-71
2022/09/06 04:23:56;;;;;;;9.52;8.02;;;17.60;99.90;;;;;;5022567;28;20056;-71
2022/09/06 04:26:22;;;;;;;9.20;6.72;;;17.60;99.90;;;;;;5006341;28;20390;-71
2022/09/06 04:28:47;;;;;;;8.10;7.40;;;17.50;99.90;;;;;;5022458;28;20029;-72
2022/09/06 04:31:13;;;;;;;8.25;7.03;;;17.40;99.90;;;;;;5006630;28;20033;-72
2022/09/06 04:33:39;;;;;;;8.50;7.57;;;17.40;99.90;;;;;;5006391;28;20036;-71
2022/09/06 04:36:08;;;;;;;9.18;7.28;;;17.30;99.90;;;;;;5006269;28;20103;-71
2022/09/06 04:38:37;;;;;;;11.20;8.00;;;17.30;99.90;;;;;;5040260;28;20036;-71
2022/09/06 04:41:04;;;;;;;8.65;7.85;;;17.30;99.90;;;;;;5039914;28;20353;-71
2022/09/06 04:43:29;;;;;;;11.20;8.35;;;17.40;99.90;;;;;;5039412;28;20040;-72
2022/09/06 04:45:55;;;;;;;12.77;8.57;;;17.40;99.90;;;;;;5039465;28;20029;-71
2022/09/06 04:48:21;;;;;;;11.88;9.65;;;17.30;99.90;;;;;;5039550;28;20037;-73
2022/09/06 04:50:47;;;;;;;9.75;8.85;;;17.30;99.90;;;;;;5022112;28;20064;-72
2022/09/06 04:53:12;;;;;;;9.52;8.20;;;17.20;99.90;;;;;;5057237;28;20068;-73
2022/09/06 04:55:38;;;;;;;9.75;8.20;;;17.20;99.90;;;;;;5058523;28;20033;-72
2022/09/06 04:58:05;;;;;;;10.52;8.93;;;17.20;99.90;;;;;;5058414;28;20025;-74
2022/09/06 05:00:33;;;;;;;10.75;8.43;;;17.10;99.90;;;;;;5059036;28;20024;-72
2022/09/06 05:02:58;;;;;;;9.75;8.85;;;17.10;99.90;;;;;;5075061;28;20021;-72
2022/09/06 05:05:24;;;;;;;10.48;9.10;;;17.10;99.90;;;;;;5057792;28;20041;-73
2022/09/06 05:07:54;;;;;;;10.65;9.55;;;17.20;99.90;;;;;;5058241;28;20352;-72
2022/09/06 05:10:22;;;;;;;10.90;9.80;;;17.20;99.90;;;;;;5058867;28;20025;-71
2022/09/06 05:12:52;;;;;;;12.88;9.95;;;17.20;99.90;;;;;;5058279;28;20063;-71
2022/09/06 05:15:18;;;;;;;10.05;9.15;;;17.30;99.90;;;;;;5058502;28;20356;-72
2022/09/06 05:17:44;;;;;;;10.55;9.45;;;17.20;99.90;;;;;;5058922;28;20036;-72
2022/09/06 05:20:10;;;;;;;10.02;8.95;;;17.20;99.90;;;;;;5058208;28;20128;-72
2022/09/06 05:22:37;;;;;;;10.07;8.90;;;17.20;99.90;;;;;;5058629;28;20028;-73
2022/09/06 05:25:03;;;;;;;10.88;9.77;;;17.10;99.90;;;;;;5040944;28;20092;-73
2022/09/06 05:27:28;;;;;;;10.35;9.05;;;17.20;99.90;;;;;;5041084;28;20032;-74
2022/09/06 05:29:54;;;;;;;10.45;9.45;;;17.20;99.90;;;;;;5073358;28;20037;-71
2022/09/06 05:32:20;;;;;;;12.05;10.68;;;17.20;99.90;;;;;;5057939;28;20051;-71
2022/09/06 05:34:46;;;;;;;18.17;9.45;;;17.20;99.90;;;;;;5058355;28;20032;-72
2022/09/06 05:37:12;;;;;;;10.50;9.50;;;17.30;99.90;;;;;;5057800;28;20049;-72
2022/09/06 05:39:37;;;;;;;13.10;9.63;;;17.30;99.90;;;;;;5040879;28;20359;-72
2022/09/06 05:42:05;;;;;;;12.00;10.10;;;17.40;99.90;;;;;;5068692;22;20048;-71
2022/09/06 05:44:33;;;;;;;11.50;10.23;;;17.40;99.90;;;;;;5081608;28;20311;-72
2022/09/06 05:46:59;;;;;;;12.23;10.55;;;17.50;99.90;;;;;;5081212;28;20028;-71
2022/09/06 05:49:24;;;;;;;11.18;8.82;;;17.50;99.90;;;;;;5098532;28;20047;-72
2022/09/06 05:51:51;;;;;;;11.15;10.05;;;17.50;99.90;;;;;;5080834;28;20051;-73
2022/09/06 05:54:17;;;;;;;12.10;9.63;;;17.60;99.90;;;;;;5089340;23;20043;-72
2022/09/06 05:56:42;;;;;;;12.75;10.35;;;17.60;99.90;;;;;;5084183;28;20062;-72
2022/09/06 05:59:08;;;;;;;11.75;10.55;;;17.60;99.90;;;;;;5118062;28;20388;-72
2022/09/06 06:01:34;;;;;;;11.07;9.98;;;17.70;99.90;;;;;;5118725;28;20024;-73
2022/09/06 06:04:02;;;;;;;11.18;10.07;;;17.70;99.90;;;;;;5118526;28;20035;-72
2022/09/06 06:06:30;;;;;;;11.55;10.43;;;17.80;99.90;;;;;;5100809;28;20371;-72
2022/09/06 06:08:56;;;;;;;13.00;10.48;;;17.90;99.90;;;;;;5100821;28;20382;-73
2022/09/06 06:11:24;;;;;;;13.55;10.38;;;18.00;99.90;;;;;;5100706;28;20053;-73
2022/09/06 06:13:51;;;;;;;11.05;9.82;;;18.00;99.90;;;;;;5100634;28;20077;-72
2022/09/06 06:16:19;;;;;;;13.68;10.30;;;17.90;99.90;;;;;;5067324;28;20066;-72
2022/09/06 06:18:45;;;;;;;13.35;9.98;;;18.00;99.90;;;;;;5100585;28;20060;-73
2022/09/06 06:21:20;;;;;;;12.55;10.48;;;18.10;99.90;;;;;;5118189;28;20303;-69
2022/09/06 06:23:49;;;;;;;11.30;9.10;;;18.20;99.90;;;;;;5118042;28;20338;-72
2022/09/06 06:26:15;;;;;;;10.93;9.27;;;18.20;99.90;;;;;;5083456;28;20015;-74
2022/09/06 06:28:41;;;;;;;10.25;9.15;;;18.20;99.90;;;;;;5100393;28;20023;-72
2022/09/06 06:31:09;;;;;;;6.00;5.10;;;18.30;99.90;;;;;;5100223;28;20043;-60
2022/09/06 06:33:35;;;;;;;9.13;8.20;;;18.50;99.90;;;;;;5118251;28;20050;-72
2022/09/06 06:36:03;;;;;;;9.35;8.38;;;18.60;99.90;;;;;;5066719;28;20023;-72
2022/09/06 06:38:33;;;;;;;8.98;7.75;;;18.60;99.90;;;;;;5118067;28;20081;-72
2022/09/06 06:41:00;;;;;;;9.25;7.55;;;18.70;99.90;;;;;;5082930;28;20272;-73
2022/09/06 06:43:26;;;;;;;9.07;7.75;;;18.60;99.90;;;;;;5117686;28;20027;-72
2022/09/06 06:45:53;;;;;;;7.72;6.93;;;18.60;99.90;;;;;;5118009;28;20034;-73
2022/09/06 06:48:22;;;;;;;9.38;8.48;;;18.90;99.90;;;;;;5100203;28;20028;-73
2022/09/06 06:50:48;;;;;;;8.88;7.10;;;18.90;99.90;;;;;;5117660;28;20023;-72
2022/09/06 06:53:14;;;;;;;9.73;8.20;;;19.00;99.90;;;;;;5085583;28;20474;-72
2022/09/06 06:55:45;;;;;;;10.30;7.70;;;18.90;99.90;;;;;;5076419;28;20075;-72
2022/09/06 06:58:17;;;;;;;8.90;7.18;;;18.90;99.90;;;;;;5076316;28;20036;-72
2022/09/06 07:00:44;;;;;;;7.85;7.05;;;18.90;99.90;;;;;;5076234;28;20040;-72
2022/09/06 07:03:11;;;;;;;7.80;6.82;;;19.00;99.90;;;;;;5076965;28;20044;-73
2022/09/06 07:05:38;;;;;;;7.18;6.50;;;19.10;99.90;;;;;;5076264;28;20111;-72
2022/09/06 07:08:05;;;;;;;10.57;6.78;;;19.20;99.90;;;;;;5076326;28;20020;-72
2022/09/06 07:10:32;;;;;;;7.70;6.38;;;19.30;99.90;;;;;;5076171;28;20025;-72
2022/09/06 07:12:58;;;;;;;7.32;6.20;;;19.20;99.90;;;;;;5059517;28;20043;-72
2022/09/06 07:15:24;;;;;;;6.72;5.70;;;19.20;99.90;;;;;;5059795;28;20169;-71
2022/09/06 07:17:51;;;;;;;8.95;6.20;;;19.40;99.90;;;;;;5076195;28;20056;-73
2022/09/06 07:20:19;;;;;;;6.60;5.28;;;19.40;99.90;;;;;;5076928;28;20049;-73
2022/09/06 07:22:45;;;;;;;6.85;4.93;;;19.40;99.90;;;;;;5076186;28;20120;-73
2022/09/06 07:25:12;;;;;;;5.30;4.75;;;19.50;99.90;;;;;;5076040;28;20044;-72
2022/09/06 07:27:38;;;;;;;6.65;4.88;;;19.50;99.90;;;;;;5076056;28;20062;-73
2022/09/06 07:30:05;;;;;;;8.88;4.85;;;19.50;99.90;;;;;;5076006;28;20032;-72
2022/09/06 07:32:33;;;;;;;5.70;4.43;;;19.50;99.90;;;;;;5075864;28;20126;-71
2022/09/06 07:34:59;;;;;;;7.30;4.40;;;19.50;99.90;;;;;;5075643;28;20039;-73
2022/09/06 07:37:25;;;;;;;8.35;4.60;;;19.60;99.90;;;;;;5075862;28;20379;-72
2022/09/06 07:39:50;;;;;;;5.90;4.32;;;19.60;99.90;;;;;;5026094;28;20146;-72
2022/09/06 07:42:16;;;;;;;5.57;4.13;;;19.70;99.90;;;;;;5059198;28;20025;-73
2022/09/06 07:44:42;;;;;;;6.13;4.28;;;19.60;99.90;;;;;;5076410;28;20041;-72
2022/09/06 07:47:09;;;;;;;6.95;4.03;;;19.80;99.90;;;;;;5042743;28;20312;-72
2022/09/06 07:49:34;;;;;;;5.80;3.85;;;19.80;99.90;;;;;;5059574;28;20032;-70
2022/09/06 07:52:00;;;;;;;5.22;3.67;;;20.00;99.90;;;;;;5059794;28;20037;-71
2022/09/06 07:54:26;;;;;;;6.63;4.15;;;20.20;99.90;;;;;;5121055;28;20045;-72
2022/09/06 07:56:52;;;;;;;7.72;4.00;;;20.20;99.90;;;;;;5120669;28;20115;-71
2022/09/06 07:59:18;;;;;;;5.82;3.67;;;20.30;99.90;;;;;;5103435;28;20035;-70
2022/09/06 08:01:44;;;;;;;6.72;3.65;;;20.30;99.90;;;;;;5086330;28;20042;-71
2022/09/06 08:04:13;;;;;;;4.78;3.28;;;20.40;99.90;;;;;;5103036;28;20080;-72
2022/09/06 08:06:41;;;;;;;6.57;3.88;;;20.50;99.90;;;;;;5120921;28;20020;-70
2022/09/06 08:09:08;;;;;;;6.70;3.90;;;20.40;99.90;;;;;;5102914;28;20041;-70
2022/09/06 08:11:36;;;;;;;4.43;3.50;;;20.40;99.90;;;;;;5103682;28;20450;-70
2022/09/06 08:14:04;;;;;;;4.80;3.30;;;20.40;99.90;;;;;;5121111;28;20035;-71
2022/09/06 08:16:32;;;;;;;6.90;3.35;;;20.40;99.90;;;;;;5102846;28;20031;-68
2022/09/06 08:19:00;;;;;;;5.53;3.28;;;20.50;99.90;;;;;;5120446;28;20096;-69
2022/09/06 08:21:28;;;;;;;3.70;2.88;;;20.60;99.90;;;;;;5120351;28;20073;-74
2022/09/06 08:23:56;;;;;;;5.30;3.20;;;20.80;99.90;;;;;;5102359;28;20019;-69
2022/09/06 08:26:23;;;;;;;7.07;3.00;;;20.90;99.90;;;;;;5120544;28;20028;-72
2022/09/06 08:29:01;;;;;;;5.60;2.95;;;21.00;99.90;;;;;;5102571;28;20031;-72
2022/09/06 08:31:29;;;;;;;6.28;2.90;;;21.00;99.90;;;;;;5102769;28;20273;-74
2022/09/06 08:33:56;;;;;;;5.72;3.22;;;21.00;99.90;;;;;;5120425;28;20049;-68
2022/09/06 08:36:22;;;;;;;4.18;2.85;;;21.10;99.90;;;;;;5120375;28;20391;-70
2022/09/06 08:38:48;;;;;;;4.80;3.30;;;21.10;99.90;;;;;;5085476;28;20036;-72
2022/09/06 08:41:23;;;;;;;4.57;3.00;;;21.30;99.90;;;;;;5085636;28;20156;-69
2022/09/06 08:44:09;;;;;;;6.85;3.28;;;21.20;99.90;;;;;;5102207;28;20035;-65
2022/09/06 08:46:58;;;;;;;7.45;3.35;;;21.30;99.90;;;;;;5102189;28;20027;-68
2022/09/06 08:49:38;;;;;;;5.70;2.83;;;21.40;99.90;;;;;;5102199;28;20038;-68
2022/09/06 08:52:22;;;;;;;7.03;3.67;;;21.50;99.90;;;;;;5084928;28;20024;-67
2022/09/06 08:55:00;;;;;;;4.72;3.33;;;21.70;99.90;;;;;;5102094;28;20043;-67
2022/09/06 08:57:38;;;;;;;5.15;3.83;;;21.70;99.90;;;;;;5119682;28;20039;-73
2022/09/06 09:00:10;;;;;;;5.72;3.83;;;21.70;99.90;;;;;;5101704;28;20028;-70
2022/09/06 09:02:48;;;;;;;5.78;3.88;;;21.60;99.90;;;;;;5119634;28;20093;-72
2022/09/06 09:05:38;;;;;;;5.93;4.50;;;21.60;99.90;;;;;;5118957;28;20028;-68
2022/09/06 09:08:38;;;;;;;5.75;4.03;;;21.70;99.90;;;;;;5089724;28;20079;-71
2022/09/06 09:11:13;;;;;;;5.65;4.30;;;21.80;99.90;;;;;;5101599;28;20043;-72
2022/09/06 09:13:58;;;;;;;7.53;4.57;;;22.00;99.90;;;;;;5119312;28;20019;-69
2022/09/06 09:16:24;;;;;;;6.00;4.20;;;21.80;99.90;;;;;;5101440;28;20034;-71
2022/09/06 09:18:58;;;;;;;7.80;3.88;;;21.90;99.90;;;;;;5119224;28;20089;-69
2022/09/06 09:21:25;;;;;;;7.95;4.30;;;22.00;99.90;;;;;;5101408;28;20045;-68
2022/09/06 09:23:57;;;;;;;4.43;3.35;;;22.00;99.90;;;;;;5101234;28;20283;-67
2022/09/06 09:26:25;;;;;;;6.38;4.47;;;22.20;99.90;;;;;;5101866;28;20038;-67
2022/09/06 09:29:06;;;;;;;5.47;4.05;;;22.30;99.90;;;;;;5119511;28;20031;-68
2022/09/06 09:31:48;;;;;;;9.55;4.75;;;22.60;99.90;;;;;;5101060;28;20027;-72
2022/09/06 09:34:36;;;;;;;5.13;3.83;;;22.70;99.90;;;;;;5118895;28;20032;-68
2022/09/06 09:37:25;;;;;;;6.65;4.50;;;22.70;99.90;;;;;;5118838;28;20126;-67
2022/09/06 09:39:54;;;;;;;7.00;4.70;;;22.90;99.90;;;;;;5101181;28;20062;-68
2022/09/06 09:42:29;;;;;;;6.93;4.07;;;23.00;99.90;;;;;;5118716;28;20032;-68
2022/09/06 09:44:55;;;;;;;6.97;3.75;;;23.10;99.90;;;;;;5084014;28;20054;-67
2022/09/06 09:47:32;;;;;;;7.00;4.07;;;23.10;99.90;;;;;;5084147;28;20028;-67
2022/09/06 09:49:59;;;;;;;7.10;4.40;;;23.40;99.90;;;;;;5118683;28;20035;-67
2022/09/06 09:52:28;;;;;;;6.80;4.10;;;23.50;99.90;;;;;;5100651;28;20051;-66
2022/09/06 09:55:03;;;;;;;5.40;3.90;;;23.50;99.90;;;;;;5118468;28;20023;-68
2022/09/06 09:57:44;;;;;;;4.60;3.90;;;23.50;99.90;;;;;;5100698;28;20057;-65
2022/09/06 10:00:12;;;;;;;4.47;3.33;;;23.40;99.90;;;;;;5100771;28;20133;-66
2022/09/06 10:02:40;;;;;;;7.13;3.58;;;23.30;99.90;;;;;;5101078;28;20036;-61
2022/09/06 10:05:18;;;;;;;5.18;2.90;;;23.60;99.90;;;;;;5118251;28;20035;-65
2022/09/06 10:08:11;;;;;;;5.63;2.97;;;23.80;99.90;;;;;;5100502;28;20030;-66
2022/09/06 10:10:45;;;;;;;2.97;2.67;;;24.10;99.90;;;;;;5097120;28;20039;-67
2022/09/06 10:13:22;;;;;;;3.20;2.90;;;24.20;99.90;;;;;;5101117;28;20031;-66
2022/09/06 10:15:50;;;;;;;6.35;2.80;;;24.10;99.90;;;;;;5117447;28;20360;-67
2022/09/06 10:18:31;;;;;;;2.70;2.38;;;24.00;99.90;;;;;;5118067;28;20126;-66
2022/09/06 10:21:08;;;;;;;3.85;2.10;;;24.20;99.90;;;;;;5118190;28;20460;-67
2022/09/06 10:23:45;;;;;;;3.42;2.60;;;24.40;99.90;;;;;;5117845;28;20425;-65
2022/09/06 10:26:16;;;;;;;3.70;2.30;;;24.30;99.90;;;;;;5100213;28;20059;-68
2022/09/06 10:28:42;;;;;;;3.47;2.10;;;24.00;99.90;;;;;;5118411;28;20028;-70
2022/09/06 10:31:29;;;;;;;2.53;1.70;;;23.90;99.90;;;;;;5118204;28;20028;-67
2022/09/06 10:33:55;;;;;;;4.57;1.92;;;24.20;99.90;;;;;;5099952;28;20387;-66
2022/09/06 10:37:05;;;;;;;4.82;1.90;;;24.30;99.90;;;;;;5099847;28;20032;-65
2022/09/06 10:39:46;;;;;;;4.95;2.10;;;24.90;99.90;;;;;;5100074;28;20084;-67
2022/09/06 10:42:41;;;;;;;4.25;1.52;;;25.80;99.90;;;;;;5100037;28;20110;-64
2022/09/06 10:45:22;;;;;;;3.28;1.55;;;26.20;99.90;;;;;;5099995;28;20303;-66
2022/09/06 10:48:28;;;;;;;5.43;1.48;;;27.20;99.90;;;;;;5099877;28;20031;-65
2022/09/06 10:50:59;;;;;;;7.88;1.70;;;28.40;99.90;;;;;;5099878;28;20280;-65
2022/09/06 10:53:48;;;;;;;2.83;1.75;;;28.30;99.90;;;;;;5082802;28;20047;-61
2022/09/06 10:56:42;;;;;;;3.05;1.50;;;28.00;99.90;;;;;;5099763;28;20038;-67
2022/09/06 10:59:27;;;;;;;3.45;1.55;;;28.60;99.90;;;;;;5117552;28;20295;-66
2022/09/06 11:02:16;;;;;;;2.35;1.30;;;29.30;99.90;;;;;;5099755;28;20023;-68
2022/09/06 11:04:44;;;;;;;3.05;1.38;;;30.30;99.90;;;;;;5099706;28;20110;-66
2022/09/06 11:07:27;;;;;;;2.33;1.42;;;28.50;99.90;;;;;;5117595;28;20035;-65
2022/09/06 11:09:58;;;;;;;1.60;1.30;;;28.90;99.90;;;;;;5117473;28;20031;-66
2022/09/06 11:12:56;;;;;;;2.25;1.23;;;28.70;99.90;;;;;;5117365;28;20383;-66
2022/09/06 11:15:24;;;;;;;2.65;1.50;;;30.00;99.90;;;;;;5117430;28;20047;-65
2022/09/06 11:18:19;;;;;;;2.25;1.10;;;29.00;99.90;;;;;;5082719;28;20379;-66
2022/09/06 11:21:13;;;;;;;5.43;1.50;;;29.90;99.90;;;;;;5099689;28;20050;-66
2022/09/06 11:24:11;;;;;;;4.40;1.30;;;31.10;99.90;;;;;;5117447;28;20041;-67
2022/09/06 11:27:01;;;;;;;6.78;1.15;;;32.40;99.90;;;;;;5100271;28;20261;-66
2022/09/06 11:29:30;;;;;;;2.13;1.08;;;31.40;99.90;;;;;;5103664;28;20314;-67
2022/09/06 11:31:57;;;;;;;1.88;1.00;;;32.00;99.90;;;;;;5103495;28;20015;-66
2022/09/06 11:34:50;;;;;;;2.65;0.98;;;31.40;99.90;;;;;;5121303;28;20028;-68
2022/09/06 11:37:31;;;;;;;5.13;1.20;;;29.50;99.90;;;;;;5103662;28;20098;-68
2022/09/06 11:40:16;;;;;;;3.47;1.20;;;30.40;99.90;;;;;;5121189;28;20051;-65
2022/09/06 11:42:46;;;;;;;3.22;1.17;;;31.90;99.90;;;;;;5103387;28;20285;-67
2022/09/06 11:45:19;;;;;;;0.95;0.80;;;32.20;99.90;;;;;;5121038;28;20053;-67
2022/09/06 11:47:52;;;;;;;3.17;1.02;;;33.20;98.00;;;;;;5121059;28;20023;-68
2022/09/06 11:50:24;;;;;;;1.63;0.90;;;33.80;94.40;;;;;;5103285;28;20038;-68
2022/09/06 11:53:12;;;;;;;1.95;0.80;;;33.30;91.80;;;;;;5085965;28;20070;-68
2022/09/06 11:56:08;;;;;;;2.92;1.00;;;31.20;96.60;;;;;;5121161;28;20023;-67
2022/09/06 11:58:40;;;;;;;2.40;1.00;;;32.70;94.70;;;;;;5121149;28;20039;-67
2022/09/06 12:01:12;;;;;;;5.25;0.93;;;33.10;93.40;;;;;;5120744;28;20027;-67
2022/09/06 12:04:01;;;;;;;2.85;0.82;;;33.40;93.50;;;;;;5102679;28;20422;-68
2022/09/06 12:06:31;;;;;;;1.88;0.70;;;34.50;90.60;;;;;;5120144;28;20047;-66
2022/09/06 12:08:57;;;;;;;4.75;1.00;;;33.40;91.50;;;;;;5120541;28;20069;-67
2022/09/06 12:11:45;;;;;;;1.92;1.00;;;33.40;90.00;;;;;;5103455;28;20027;-68
2022/09/06 12:14:34;;;;;;;2.88;0.95;;;31.70;93.10;;;;;;5103195;28;20035;-69
2022/09/06 12:17:00;;;;;;;3.05;0.82;;;30.70;93.40;;;;;;5085704;28;20343;-67
2022/09/06 12:19:53;;;;;;;2.63;0.88;;;31.40;94.60;;;;;;5102569;28;20356;-67
2022/09/06 12:22:39;;;;;;;3.80;0.90;;;33.30;91.10;;;;;;5120230;28;20024;-67
2022/09/06 12:25:08;;;;;;;2.38;0.88;;;33.90;89.70;;;;;;5120682;28;20115;-67
2022/09/06 12:27:51;;;;;;;1.27;0.80;;;33.30;90.00;;;;;;5120158;28;20031;-67
2022/09/06 12:30:43;;;;;;;2.47;0.80;;;33.90;87.20;;;;;;5120228;28;20066;-67
2022/09/06 12:33:15;;;;;;;;;;;34.90;84.40;;;;;;5102635;28;20022;-68
2022/09/06 12:35:41;;;;;;;3.00;0.80;;;35.30;81.50;;;;;;5120076;28;19908;-68
2022/09/06 12:38:12;;;;;;;1.55;0.80;;;36.20;78.60;;;;;;5068389;28;20055;-68
2022/09/06 12:40:44;;;;;;;1.75;1.08;;;37.20;75.00;;;;;;5120008;28;20031;-67
2022/09/06 12:43:13;;;;;;;1.80;1.00;;;38.20;71.70;;;;;;5119971;28;20031;-68
2022/09/06 12:45:50;;;;;;;5.35;1.17;;;37.50;71.70;;;;;;5119874;28;20034;-66
2022/09/06 12:48:27;;;;;;;1.98;0.93;;;36.40;72.90;;;;;;5119924;28;20027;-67
2022/09/06 12:51:14;;;;;;;1.17;0.77;;;37.70;70.90;;;;;;5102184;28;20047;-67
2022/09/06 12:53:52;;;;;;;4.25;0.80;;;39.10;67.00;;;;;;5101832;28;20069;-67
2022/09/06 12:56:20;;;;;;;1.85;0.90;;;40.10;65.20;;;;;;5119724;28;20035;-67
2022/09/06 12:58:46;;;;;;;6.07;0.95;;;40.40;62.40;;;;;;5119629;28;20026;-67
2022/09/06 13:01:24;;;;;;;8.55;1.23;;;40.80;60.30;;;;;;5120092;28;20291;-65
2022/09/06 13:04:18;;;;;;;2.40;0.90;;;39.10;62.20;;;;;;5119978;28;20035;-66
2022/09/06 13:06:46;;;;;;;2.00;0.90;;;39.50;62.20;;;;;;5101898;28;20035;-67
2022/09/06 13:09:16;;;;;;;1.77;1.00;;;40.30;60.70;;;;;;5119364;28;20102;-66